Time;durP1;ratioP1;P1;durP2;ratioP2;P2;SDS_P1;SDS_P2;PMS_P1;PMS_P2;Temp;Humidity;BMP_temperature;BMP_pressure;BME280_temperature;BME280_humidity;BME280_pressure;Samples;Min_cycle;Max_cycle;Signal;HPM_P1;HPM_P2
2024/01/10 00:01:31;;;;;;;8.38;4.65;;;;;;;-6.32;95.40;102808.44;5032634;28;20026;-69
2024/01/10 00:03:56;;;;;;;7.60;4.75;;;;;;;-6.33;94.74;102801.56;5014845;28;20041;-69
2024/01/10 00:06:23;;;;;;;8.50;4.82;;;;;;;-6.35;95.16;102800.75;5032713;28;20466;-69
2024/01/10 00:08:48;;;;;;;6.40;4.38;;;;;;;-6.36;95.44;102805.13;5032607;28;20389;-69
2024/01/10 00:11:14;;;;;;;7.90;4.88;;;;;;;-6.47;95.12;102780.38;5032542;28;20036;-69
2024/01/10 00:13:39;;;;;;;8.55;4.93;;;;;;;-6.42;94.54;102794.91;5014773;28;20437;-70
2024/01/10 00:16:05;;;;;;;8.05;4.70;;;;;;;-6.42;95.12;102789.72;5032480;28;20033;-70
2024/01/10 00:18:30;;;;;;;5.95;4.50;;;;;;;-6.48;95.63;102787.34;5032321;28;20033;-69
2024/01/10 00:20:56;;;;;;;8.48;4.75;;;;;;;-6.43;96.23;102792.38;5032417;28;20120;-69
2024/01/10 00:23:22;;;;;;;10.32;4.30;;;;;;;-6.49;96.33;102787.41;5032425;28;20467;-69
2024/01/10 00:25:48;;;;;;;8.45;4.65;;;;;;;-6.48;95.49;102789.09;5014623;28;20129;-70
2024/01/10 00:28:14;;;;;;;7.78;5.00;;;;;;;-6.48;94.58;102781.28;5032351;28;20118;-70
2024/01/10 00:30:39;;;;;;;8.80;5.32;;;;;;;-6.46;95.42;102774.28;5032271;28;20068;-69
2024/01/10 00:33:05;;;;;;;7.43;4.75;;;;;;;-6.49;95.59;102777.84;5032160;28;20095;-69
2024/01/10 00:35:30;;;;;;;8.60;4.60;;;;;;;-6.50;95.70;102775.28;5031077;28;20500;-69
2024/01/10 00:37:56;;;;;;;7.95;4.72;;;;;;;-6.49;95.91;102779.59;5032113;28;20029;-69
2024/01/10 00:40:22;;;;;;;7.55;4.55;;;;;;;-6.50;95.64;102770.94;5032043;28;20030;-70
2024/01/10 00:42:48;;;;;;;6.32;4.05;;;;;;;-6.51;96.57;102769.25;5032234;28;20052;-70
2024/01/10 00:45:13;;;;;;;9.68;3.85;;;;;;;-6.50;96.90;102781.34;5032085;28;20116;-70
2024/01/10 00:47:38;;;;;;;6.95;4.30;;;;;;;-6.53;96.19;102770.22;5032077;28;20120;-69
2024/01/10 00:50:04;;;;;;;7.47;5.22;;;;;;;-6.53;95.92;102778.00;5031902;28;20049;-70
2024/01/10 00:52:30;;;;;;;6.72;4.35;;;;;;;-6.48;95.41;102782.13;5032049;28;20044;-71
2024/01/10 00:54:55;;;;;;;7.15;3.90;;;;;;;-6.52;96.18;102774.50;5032204;28;20517;-70
2024/01/10 00:57:20;;;;;;;5.82;4.43;;;;;;;-6.52;95.70;102771.91;5031821;28;20037;-70
2024/01/10 00:59:46;;;;;;;8.77;4.68;;;;;;;-6.58;96.55;102767.78;5031716;28;20112;-69
2024/01/10 01:02:11;;;;;;;6.90;3.58;;;;;;;-6.59;96.28;102773.88;5014045;28;20068;-69
2024/01/10 01:04:36;;;;;;;9.63;5.43;;;;;;;-6.64;97.11;102763.66;5031941;28;20401;-71
2024/01/10 01:07:02;;;;;;;10.25;5.18;;;;;;;-6.62;97.50;102774.00;5014104;28;20116;-70
2024/01/10 01:09:27;;;;;;;6.32;3.65;;;;;;;-6.71;98.54;102762.16;5032183;28;20033;-71
2024/01/10 01:11:52;;;;;;;7.30;4.35;;;;;;;-6.75;99.63;102765.78;5014067;28;20497;-70
2024/01/10 01:14:18;;;;;;;7.13;4.82;;;;;;;-6.70;99.01;102763.84;5031760;28;20029;-70
2024/01/10 01:16:43;;;;;;;5.10;4.35;;;;;;;-6.76;98.58;102753.69;5014055;28;20079;-69
2024/01/10 01:19:08;;;;;;;7.55;4.75;;;;;;;-6.71;98.31;102766.50;5013956;28;20124;-69
2024/01/10 01:21:34;;;;;;;7.38;4.80;;;;;;;-6.73;98.96;102769.16;5031509;28;20071;-69
2024/01/10 01:23:59;;;;;;;8.00;4.43;;;;;;;-6.74;98.41;102761.41;5031507;28;20029;-69
2024/01/10 01:26:24;;;;;;;8.27;4.68;;;;;;;-6.68;98.94;102767.25;5013802;28;20021;-70
2024/01/10 01:28:50;;;;;;;7.00;4.60;;;;;;;-6.69;98.93;102767.31;5031427;28;20022;-69
2024/01/10 01:31:15;;;;;;;8.27;4.57;;;;;;;-6.68;99.37;102766.41;5031439;28;20026;-68
2024/01/10 01:33:40;;;;;;;6.10;4.35;;;;;;;-6.71;98.94;102761.31;5031444;28;20057;-69
2024/01/10 01:36:07;;;;;;;8.25;4.82;;;;;;;-6.67;99.27;102757.69;5031203;28;20505;-70
2024/01/10 01:38:32;;;;;;;6.63;4.43;;;;;;;-6.64;99.43;102763.66;5031310;28;20037;-69
2024/01/10 01:40:57;;;;;;;7.63;4.72;;;;;;;-6.66;99.35;102762.81;5031426;28;20469;-69
2024/01/10 01:43:24;;;;;;;5.35;3.70;;;;;;;-6.62;99.14;102756.63;5031176;28;20040;-70
2024/01/10 01:45:54;;;;;;;8.60;4.63;;;;;;;-6.70;100.00;102761.25;5032700;28;20029;-69
2024/01/10 01:48:21;;;;;;;7.25;4.43;;;;;;;-6.70;100.00;102758.66;5037977;28;20030;-69
2024/01/10 01:50:48;;;;;;;6.20;4.22;;;;;;;-6.68;99.69;102753.38;5037868;28;20494;-70
2024/01/10 01:53:15;;;;;;;11.10;5.35;;;;;;;-6.74;100.00;102751.00;5037723;28;20030;-69
2024/01/10 01:55:43;;;;;;;8.38;4.90;;;;;;;-6.76;100.00;102752.81;5037719;28;20034;-70
2024/01/10 01:58:08;;;;;;;7.25;4.20;;;;;;;-6.82;100.00;102746.09;5037617;28;20108;-71
2024/01/10 02:00:34;;;;;;;8.05;4.80;;;;;;;-6.84;100.00;102750.50;5037697;28;20495;-70
2024/01/10 02:03:01;;;;;;;7.32;4.63;;;;;;;-6.78;100.00;102754.63;5037630;28;20033;-69
2024/01/10 02:05:26;;;;;;;6.72;4.63;;;;;;;-6.78;100.00;102752.03;5019775;28;20064;-69
2024/01/10 02:07:51;;;;;;;9.00;5.32;;;;;;;-6.74;100.00;102759.66;5037572;28;20064;-69
2024/01/10 02:10:19;;;;;;;6.25;4.22;;;;;;;-6.71;100.00;102756.09;5037528;28;20053;-70
2024/01/10 02:12:44;;;;;;;7.05;4.65;;;;;;;-6.72;100.00;102750.06;5037522;28;20437;-70
2024/01/10 02:15:10;;;;;;;9.40;4.93;;;;;;;-6.73;100.00;102750.13;5037502;28;20022;-69
2024/01/10 02:17:35;;;;;;;10.20;5.45;;;;;;;-6.88;100.00;102728.97;5037575;28;20032;-69
2024/01/10 02:20:16;;;;;;;7.45;5.30;;;;;;;-6.75;100.00;102747.56;5037318;28;20076;-70
2024/01/10 02:22:42;;;;;;;9.93;5.97;;;;;;;-6.86;100.00;102736.72;5037298;28;20538;-70
2024/01/10 02:25:09;;;;;;;7.43;4.95;;;;;;;-6.88;100.00;102741.13;5037374;28;20105;-69
2024/01/10 02:27:36;;;;;;;7.13;4.38;;;;;;;-6.92;100.00;102729.16;5037486;28;20386;-69
2024/01/10 02:30:05;;;;;;;7.78;4.72;;;;;;;-6.89;100.00;102742.88;5037435;28;20025;-69
2024/01/10 02:32:31;;;;;;;8.10;4.93;;;;;;;-6.92;100.00;102747.34;5037304;28;20033;-68
2024/01/10 02:34:56;;;;;;;7.50;4.65;;;;;;;-6.95;100.00;102731.81;5037167;28;20037;-69
2024/01/10 02:37:22;;;;;;;9.38;5.05;;;;;;;-6.92;100.00;102743.00;5037258;28;20080;-69
2024/01/10 02:39:47;;;;;;;5.93;3.17;;;;;;;-6.89;100.00;102739.44;5037249;28;20033;-69
2024/01/10 02:42:13;;;;;;;8.18;4.45;;;;;;;-6.88;100.00;102741.97;5037095;28;20025;-70
2024/01/10 02:44:38;;;;;;;6.45;4.28;;;;;;;-6.84;100.00;102734.91;5019458;28;20120;-69
2024/01/10 02:47:04;;;;;;;7.80;5.07;;;;;;;-6.84;100.00;102737.50;5037070;28;20108;-69
2024/01/10 02:49:29;;;;;;;8.95;4.50;;;;;;;-6.84;100.00;102736.66;5037004;28;20028;-70
2024/01/10 02:51:55;;;;;;;6.70;4.60;;;;;;;-6.89;100.00;102721.22;5037035;28;20470;-70
2024/01/10 02:54:20;;;;;;;6.85;4.80;;;;;;;-6.77;100.00;102727.72;5019350;28;20079;-70
2024/01/10 02:56:45;;;;;;;8.43;4.82;;;;;;;-6.83;100.00;102730.56;5037059;28;20104;-69
2024/01/10 02:59:11;;;;;;;8.48;4.45;;;;;;;-6.87;100.00;102704.66;5015281;28;20029;-70
2024/01/10 03:01:36;;;;;;;6.00;4.40;;;;;;;-6.83;100.00;102721.00;5033759;28;20079;-69
2024/01/10 03:04:01;;;;;;;7.68;4.47;;;;;;;-6.86;100.00;102713.31;5033769;28;20029;-70
2024/01/10 03:06:27;;;;;;;8.07;4.43;;;;;;;-6.81;100.00;102715.75;5015978;28;20030;-70
2024/01/10 03:08:55;;;;;;;7.68;5.20;;;;;;;-6.82;100.00;102712.28;5033597;28;20478;-69
2024/01/10 03:11:20;;;;;;;9.18;5.22;;;;;;;-6.83;100.00;102714.97;5034013;28;20565;-69
2024/01/10 03:13:47;;;;;;;9.52;5.25;;;;;;;-6.85;100.00;102712.41;5033467;28;20191;-70
2024/01/10 03:16:12;;;;;;;8.32;5.05;;;;;;;-6.93;100.00;102701.44;5033430;28;20116;-69
2024/01/10 03:18:38;;;;;;;11.70;5.63;;;;;;;-6.89;100.00;102703.88;5015642;28;20108;-70
2024/01/10 03:21:03;;;;;;;7.72;4.57;;;;;;;-6.87;100.00;102703.81;5033408;28;20029;-69
2024/01/10 03:23:28;;;;;;;7.97;4.18;;;;;;;-6.76;100.00;102706.88;5033291;28;20076;-69
2024/01/10 03:25:55;;;;;;;10.23;5.47;;;;;;;-6.78;100.00;102703.47;5033355;28;20108;-70
2024/01/10 03:28:20;;;;;;;6.32;4.25;;;;;;;-6.75;100.00;102699.91;5033517;28;20029;-69
2024/01/10 03:30:46;;;;;;;6.95;4.43;;;;;;;-6.79;100.00;102706.13;5033361;28;20039;-70
2024/01/10 03:33:11;;;;;;;12.07;5.05;;;;;;;-6.84;100.00;102690.72;5033354;28;20390;-70
2024/01/10 03:35:37;;;;;;;6.47;4.43;;;;;;;-6.82;100.00;102691.50;5033232;28;20057;-70
2024/01/10 03:38:02;;;;;;;7.95;4.78;;;;;;;-6.86;100.00;102692.53;5033132;28;20029;-70
2024/01/10 03:40:27;;;;;;;8.68;5.20;;;;;;;-6.89;100.00;102687.44;5033056;28;20029;-70
2024/01/10 03:42:53;;;;;;;9.80;5.53;;;;;;;-6.85;100.00;102688.16;5015268;28;20478;-70
2024/01/10 03:45:20;;;;;;;6.93;4.70;;;;;;;-6.80;100.00;102696.63;5033026;28;20110;-70
2024/01/10 03:47:49;;;;;;;7.55;4.57;;;;;;;-6.88;100.00;102683.94;5033333;28;20033;-70
2024/01/10 03:50:16;;;;;;;7.90;5.10;;;;;;;-6.85;100.00;102688.16;5033022;28;20025;-71
2024/01/10 03:52:42;;;;;;;6.85;4.10;;;;;;;-6.85;100.00;102683.81;5032863;28;20038;-70
2024/01/10 03:55:07;;;;;;;5.68;3.63;;;;;;;-6.81;100.00;102681.94;5032860;28;20096;-70
2024/01/10 03:57:33;;;;;;;9.05;5.40;;;;;;;-6.85;100.00;102675.16;5032824;28;20068;-70
2024/01/10 03:59:58;;;;;;;10.27;4.97;;;;;;;-6.90;100.00;102671.00;5014941;28;20068;-70
2024/01/10 04:02:24;;;;;;;7.43;4.82;;;;;;;-6.89;100.00;102672.69;5032562;28;20030;-70
2024/01/10 04:04:50;;;;;;;10.85;5.47;;;;;;;-6.97;100.00;102663.44;5033001;28;20036;-70
2024/01/10 04:07:15;;;;;;;8.48;4.80;;;;;;;-6.92;100.00;102667.59;5032800;28;20060;-70
2024/01/10 04:09:40;;;;;;;10.98;5.88;;;;;;;-6.97;100.00;102672.09;5032610;28;20052;-70
2024/01/10 04:12:07;;;;;;;8.20;5.25;;;;;;;-6.95;100.00;102669.44;5032597;28;20108;-69
2024/01/10 04:14:32;;;;;;;8.80;5.38;;;;;;;-6.97;100.00;102666.88;5032675;28;20037;-70
2024/01/10 04:16:58;;;;;;;9.43;5.82;;;;;;;-6.97;100.00;102661.69;5032675;28;20470;-70
2024/01/10 04:19:24;;;;;;;8.75;5.05;;;;;;;-6.94;100.00;102661.59;5032578;28;20032;-70
2024/01/10 04:21:49;;;;;;;8.38;4.95;;;;;;;-6.95;100.00;102661.63;5032338;28;20056;-69
2024/01/10 04:24:15;;;;;;;8.90;5.50;;;;;;;-6.93;100.00;102662.47;5032368;28;20429;-70
2024/01/10 04:26:40;;;;;;;7.25;4.43;;;;;;;-6.91;100.00;102664.09;5032445;28;20033;-69
2024/01/10 04:29:05;;;;;;;6.88;4.60;;;;;;;-6.91;100.00;102658.91;5014579;28;20029;-70
2024/01/10 04:31:31;;;;;;;7.40;5.03;;;;;;;-6.92;100.00;102653.75;5032383;28;20434;-69
2024/01/10 04:33:56;;;;;;;10.35;5.30;;;;;;;-6.99;100.00;102655.69;5032217;28;20073;-69
2024/01/10 04:36:21;;;;;;;10.02;5.05;;;;;;;-6.91;100.00;102651.09;5032189;28;20030;-69
2024/01/10 04:38:46;;;;;;;8.73;4.78;;;;;;;-6.87;100.00;102652.66;5032140;28;20489;-69
2024/01/10 04:41:12;;;;;;;7.43;4.47;;;;;;;-6.80;100.00;102662.84;5014453;28;20021;-70
2024/01/10 04:43:37;;;;;;;7.28;4.82;;;;;;;-6.94;100.00;102653.81;5032115;28;20059;-69
2024/01/10 04:46:03;;;;;;;7.63;4.85;;;;;;;-6.90;100.00;102662.34;5031934;28;20017;-69
2024/01/10 04:48:28;;;;;;;8.50;5.15;;;;;;;-6.91;100.00;102665.84;5031948;28;20033;-69
2024/01/10 04:50:53;;;;;;;8.45;5.03;;;;;;;-6.99;100.00;102654.84;5014225;28;20239;-69
2024/01/10 04:53:19;;;;;;;9.88;5.22;;;;;;;-6.90;100.00;102655.38;5014259;28;20615;-70
2024/01/10 04:55:44;;;;;;;10.27;5.05;;;;;;;-6.90;100.00;102657.13;5031941;28;20069;-69
2024/01/10 04:58:09;;;;;;;9.30;5.50;;;;;;;-6.91;100.00;102651.09;5014154;28;20033;-69
2024/01/10 05:00:35;;;;;;;6.43;4.70;;;;;;;-6.97;100.00;102653.03;5014149;28;20025;-69
2024/01/10 05:03:01;;;;;;;9.32;5.90;;;;;;;-6.97;100.00;102651.28;5031888;28;20029;-69
2024/01/10 05:05:26;;;;;;;7.47;4.85;;;;;;;-6.95;100.00;102648.63;5031817;28;20605;-69
2024/01/10 05:07:51;;;;;;;8.65;4.35;;;;;;;-6.96;100.00;102646.94;5031768;28;20065;-69
2024/01/10 05:10:17;;;;;;;8.65;5.55;;;;;;;-6.98;100.00;102657.41;5031717;28;20032;-69
2024/01/10 05:12:42;;;;;;;8.57;5.03;;;;;;;-7.00;100.00;102659.22;5013902;28;20041;-69
2024/01/10 05:15:08;;;;;;;10.25;5.70;;;;;;;-7.05;100.00;102648.13;5031644;28;20034;-69
2024/01/10 05:17:33;;;;;;;8.93;5.38;;;;;;;-7.04;100.00;102646.38;5031632;28;20021;-70
2024/01/10 05:19:59;;;;;;;6.85;4.32;;;;;;;-7.02;100.00;102639.38;5031507;28;20036;-69
2024/01/10 05:22:24;;;;;;;9.88;5.72;;;;;;;-6.96;100.00;102655.59;5031062;28;20052;-69
2024/01/10 05:24:50;;;;;;;5.82;4.40;;;;;;;-7.01;100.00;102634.13;5031483;28;20048;-69
2024/01/10 05:27:16;;;;;;;6.68;4.85;;;;;;;-6.98;100.00;102647.00;5031585;28;20470;-70
2024/01/10 05:29:41;;;;;;;7.93;4.82;;;;;;;-6.99;100.00;102645.31;5031544;28;20036;-69
2024/01/10 05:32:06;;;;;;;8.95;5.45;;;;;;;-7.01;100.00;102638.47;5031505;28;20038;-70
2024/01/10 05:34:32;;;;;;;8.73;5.45;;;;;;;-6.97;100.00;102642.66;5031405;28;20079;-70
2024/01/10 05:36:57;;;;;;;7.15;5.10;;;;;;;-6.98;100.00;102646.16;5031264;28;20030;-70
2024/01/10 05:39:22;;;;;;;11.73;5.80;;;;;;;-6.94;100.00;102645.13;5031351;28;20493;-70
2024/01/10 05:41:48;;;;;;;9.23;5.80;;;;;;;-6.93;100.00;102645.09;5031254;28;20366;-69
2024/01/10 05:44:13;;;;;;;6.88;4.55;;;;;;;-6.88;100.00;102650.13;5031328;28;20075;-70
2024/01/10 05:46:39;;;;;;;10.30;5.43;;;;;;;-6.94;100.00;102647.72;5031276;28;20052;-69
2024/01/10 05:49:04;;;;;;;8.38;4.70;;;;;;;-6.96;100.00;102655.59;5031200;28;20112;-69
2024/01/10 05:51:30;;;;;;;7.75;4.22;;;;;;;-6.92;100.00;102658.94;5031179;28;20051;-69
2024/01/10 05:53:56;;;;;;;8.73;5.38;;;;;;;-7.03;100.00;102641.13;5031071;28;20494;-69
2024/01/10 05:56:21;;;;;;;10.02;5.05;;;;;;;-6.94;100.00;102645.13;5031083;28;20112;-70
2024/01/10 05:58:46;;;;;;;8.07;4.72;;;;;;;-7.04;100.00;102648.97;5031175;28;20108;-69
2024/01/10 06:01:12;;;;;;;9.38;5.57;;;;;;;-7.05;100.00;102655.09;5031112;28;20029;-69
2024/01/10 06:03:37;;;;;;;10.30;5.90;;;;;;;-7.09;100.00;102656.94;5030743;28;20164;-69
2024/01/10 06:06:04;;;;;;;8.13;4.95;;;;;;;-6.99;100.00;102647.06;5031008;28;20052;-70
2024/01/10 06:08:29;;;;;;;13.93;5.57;;;;;;;-6.99;100.00;102652.25;5031087;28;20033;-69
2024/01/10 06:10:54;;;;;;;8.48;5.65;;;;;;;-7.05;100.00;102650.75;5013303;28;20129;-69
2024/01/10 06:13:19;;;;;;;7.65;5.10;;;;;;;-7.09;100.00;102645.72;5030923;28;20053;-69
2024/01/10 06:15:45;;;;;;;8.57;4.72;;;;;;;-7.12;100.00;102641.47;5030974;28;20030;-71
2024/01/10 06:18:10;;;;;;;11.45;5.97;;;;;;;-7.15;100.00;102640.75;5031065;28;20030;-71
2024/01/10 06:20:39;;;;;;;8.27;6.47;;;;;;;-7.24;100.00;102628.91;5030912;28;20541;-70
2024/01/10 06:23:04;;;;;;;11.45;5.60;;;;;;;-7.16;100.00;102639.91;5030763;28;20037;-70
2024/01/10 06:25:29;;;;;;;9.07;5.57;;;;;;;-7.22;100.00;102632.34;5030863;28;20543;-69
2024/01/10 06:27:55;;;;;;;8.70;4.68;;;;;;;-7.26;100.00;102623.78;5030831;28;20032;-70
2024/01/10 06:30:20;;;;;;;9.93;5.60;;;;;;;-7.30;100.00;102629.97;5030730;28;20028;-72
2024/01/10 06:32:46;;;;;;;10.27;5.78;;;;;;;-7.32;100.00;102625.75;5031069;28;20030;-71
2024/01/10 06:35:11;;;;;;;9.80;4.93;;;;;;;-7.36;100.00;102630.22;5034163;28;20026;-72
2024/01/10 06:37:37;;;;;;;11.57;6.07;;;;;;;-7.34;100.00;102640.53;5034184;28;20493;-69
2024/01/10 06:40:04;;;;;;;9.10;6.07;;;;;;;-7.32;100.00;102638.72;5033990;28;20033;-69
2024/01/10 06:42:29;;;;;;;10.20;5.80;;;;;;;-7.32;100.00;102631.78;5016159;28;20021;-69
2024/01/10 06:44:55;;;;;;;12.80;5.57;;;;;;;-7.40;100.00;102627.78;5034031;28;20095;-71
2024/01/10 06:47:21;;;;;;;7.82;6.35;;;;;;;-7.36;100.00;102635.41;5033971;28;20025;-72
2024/01/10 06:49:46;;;;;;;11.45;6.38;;;;;;;-7.40;100.00;102641.63;5033906;28;20409;-72
2024/01/10 06:52:12;;;;;;;9.55;6.22;;;;;;;-7.45;100.00;102642.69;5034048;28;20077;-72
2024/01/10 06:54:37;;;;;;;11.05;5.78;;;;;;;-7.46;100.00;102652.22;5033760;28;20422;-68
2024/01/10 06:57:03;;;;;;;12.45;6.28;;;;;;;-7.45;100.00;102648.72;5033746;28;20061;-68
2024/01/10 06:59:28;;;;;;;11.80;5.85;;;;;;;-7.43;100.00;102657.31;5015965;28;20014;-69
2024/01/10 07:01:55;;;;;;;9.93;5.80;;;;;;;-7.50;100.00;102648.03;5033686;28;20132;-68
2024/01/10 07:04:23;;;;;;;9.63;5.65;;;;;;;-7.53;100.00;102653.31;5033686;28;20022;-68
2024/01/10 07:06:49;;;;;;;8.63;4.93;;;;;;;-7.59;100.00;102648.34;5033816;28;20101;-69
2024/01/10 07:09:19;;;;;;;9.75;6.80;;;;;;;-7.58;100.00;102652.63;5033724;28;20140;-69
2024/01/10 07:11:47;;;;;;;10.65;5.85;;;;;;;-7.63;100.00;102651.94;5033734;28;20037;-67
2024/01/10 07:14:13;;;;;;;8.82;5.55;;;;;;;-7.67;100.00;102653.81;5033618;28;20025;-67
2024/01/10 07:16:42;;;;;;;11.43;6.85;;;;;;;-7.66;100.00;102654.66;5033449;28;20045;-67
2024/01/10 07:19:07;;;;;;;10.68;6.20;;;;;;;-7.73;100.00;102650.56;5015556;28;20032;-67
2024/01/10 07:21:33;;;;;;;7.68;4.88;;;;;;;-7.73;100.00;102655.75;5033391;28;20069;-69
2024/01/10 07:23:59;;;;;;;9.82;5.70;;;;;;;-7.78;100.00;102653.31;5033441;28;20478;-67
2024/01/10 07:26:24;;;;;;;12.23;7.00;;;;;;;-7.75;100.00;102649.78;5033170;28;20493;-67
2024/01/10 07:28:50;;;;;;;10.90;5.50;;;;;;;-7.76;100.00;102643.75;5033200;28;20025;-68
2024/01/10 07:31:15;;;;;;;10.75;6.20;;;;;;;-7.74;100.00;102654.91;5033291;28;20051;-67
2024/01/10 07:33:41;;;;;;;11.82;5.50;;;;;;;-7.76;100.00;102642.88;5033192;28;20037;-68
2024/01/10 07:36:07;;;;;;;7.53;4.50;;;;;;;-7.75;100.00;102644.59;5033189;28;20100;-68
2024/01/10 07:38:33;;;;;;;9.25;5.97;;;;;;;-7.83;100.00;102639.63;5033232;28;20502;-68
2024/01/10 07:40:59;;;;;;;10.40;6.10;;;;;;;-7.78;100.00;102644.69;5033170;28;20386;-68
2024/01/10 07:43:24;;;;;;;10.63;5.72;;;;;;;-7.81;100.00;102636.13;5032668;28;20033;-69
2024/01/10 07:45:50;;;;;;;11.35;5.70;;;;;;;-7.79;100.00;102635.22;5032969;28;20021;-68
2024/01/10 07:48:15;;;;;;;7.43;4.82;;;;;;;-7.72;100.00;102644.47;5032879;28;20041;-69
2024/01/10 07:50:40;;;;;;;10.68;6.20;;;;;;;-7.70;100.00;102633.13;5032962;28;20025;-68
2024/01/10 07:53:05;;;;;;;12.13;5.85;;;;;;;-7.72;100.00;102634.09;5033072;28;20067;-67
2024/01/10 07:55:31;;;;;;;9.50;5.80;;;;;;;-7.62;100.00;102633.72;5032745;28;20395;-68
2024/01/10 07:57:56;;;;;;;9.63;6.28;;;;;;;-7.53;100.00;102633.38;5032739;28;20033;-68
2024/01/10 08:00:22;;;;;;;9.63;6.07;;;;;;;-7.21;100.00;102642.66;5032768;28;20092;-68
2024/01/10 08:02:49;;;;;;;10.43;5.80;;;;;;;-6.70;100.00;102652.03;5032564;28;20414;-68
2024/01/10 08:05:14;;;;;;;9.40;5.97;;;;;;;-6.11;100.00;102637.56;5032629;28;20025;-67
2024/01/10 08:07:40;;;;;;;13.02;7.32;;;;;;;-5.40;100.00;102644.09;5032520;28;20030;-67
2024/01/10 08:10:06;;;;;;;10.40;5.95;;;;;;;-4.70;100.00;102648.75;5032694;28;20017;-67
2024/01/10 08:12:31;;;;;;;9.45;5.72;;;;;;;-4.27;100.00;102650.22;5032534;28;20076;-67
2024/01/10 08:15:00;;;;;;;12.23;5.63;;;;;;;-4.04;100.00;102654.34;5032743;28;20552;-67
2024/01/10 08:17:26;;;;;;;11.85;6.72;;;;;;;-3.69;100.00;102656.97;5015006;28;20191;-66
2024/01/10 08:19:52;;;;;;;11.95;5.72;;;;;;;-3.38;99.52;102658.88;5032748;28;20092;-67
2024/01/10 08:22:19;;;;;;;12.13;6.75;;;;;;;-3.06;95.58;102667.66;5032786;28;20033;-66
2024/01/10 08:24:45;;;;;;;10.30;5.05;;;;;;;-2.51;91.24;102668.16;5014886;28;20029;-68
2024/01/10 08:27:10;;;;;;;13.15;6.28;;;;;;;-2.38;86.72;102671.78;5032497;28;20174;-68
2024/01/10 08:29:36;;;;;;;7.70;5.85;;;;;;;-2.22;86.78;102663.94;5032414;28;20030;-67
2024/01/10 08:32:03;;;;;;;9.50;6.10;;;;;;;-1.98;83.51;102674.81;5032473;28;20466;-68
2024/01/10 08:34:29;;;;;;;10.75;6.47;;;;;;;-1.48;80.35;102668.38;5032502;28;20486;-68
2024/01/10 08:36:54;;;;;;;12.73;5.88;;;;;;;-0.90;78.03;102678.00;5032461;28;20056;-69
2024/01/10 08:39:21;;;;;;;11.23;5.75;;;;;;;-0.31;74.04;102675.09;5032296;28;20034;-67
2024/01/10 08:41:47;;;;;;;10.75;6.22;;;;;;;0.08;67.97;102668.22;5032219;28;20454;-67
2024/01/10 08:44:13;;;;;;;10.13;6.22;;;;;;;0.47;65.57;102675.25;5032284;28;20104;-65
2024/01/10 08:46:38;;;;;;;11.82;5.20;;;;;;;0.95;66.08;102659.69;5032162;28;20116;-67
2024/01/10 08:49:04;;;;;;;11.73;6.32;;;;;;;1.46;61.13;102678.06;5014556;28;20371;-68
2024/01/10 08:51:30;;;;;;;10.63;6.43;;;;;;;1.24;58.38;102676.09;5032089;28;20466;-67
2024/01/10 08:53:56;;;;;;;12.13;6.03;;;;;;;0.84;60.27;102670.09;5032262;28;20022;-67
2024/01/10 08:56:22;;;;;;;10.05;5.43;;;;;;;1.40;61.08;102675.84;5031074;28;20032;-67
2024/01/10 08:58:47;;;;;;;13.25;6.78;;;;;;;1.56;57.12;102671.16;5032112;28;20025;-68
2024/01/10 09:01:13;;;;;;;11.18;6.00;;;;;;;1.78;57.73;102678.38;5032119;28;20025;-68
2024/01/10 09:03:38;;;;;;;10.13;6.03;;;;;;;2.01;56.03;102681.94;5032047;28;20036;-67
2024/01/10 09:06:04;;;;;;;11.95;6.55;;;;;;;2.23;54.44;102681.22;5031922;28;20497;-68
2024/01/10 09:08:30;;;;;;;11.68;7.15;;;;;;;2.04;52.76;102687.03;5032328;28;20040;-67
2024/01/10 09:10:55;;;;;;;10.27;6.65;;;;;;;1.81;53.40;102686.91;5031820;28;20030;-67
2024/01/10 09:13:21;;;;;;;13.27;6.63;;;;;;;2.03;53.63;102680.91;5031917;28;20540;-67
2024/01/10 09:15:46;;;;;;;11.57;6.18;;;;;;;2.05;51.94;102679.00;5031974;28;20025;-69
2024/01/10 09:18:11;;;;;;;12.35;6.72;;;;;;;1.94;53.12;102688.63;5031737;28;20037;-67
2024/01/10 09:20:37;;;;;;;13.75;7.28;;;;;;;1.70;53.01;102688.63;5014013;28;20111;-67
2024/01/10 09:23:03;;;;;;;11.15;7.80;;;;;;;1.67;53.86;102688.84;5031623;28;20478;-68
2024/01/10 09:25:28;;;;;;;12.38;7.53;;;;;;;1.08;54.31;102691.28;5031764;28;20021;-68
2024/01/10 09:27:54;;;;;;;12.15;6.30;;;;;;;0.71;56.31;102690.31;5031705;28;20470;-69
2024/01/10 09:30:19;;;;;;;13.95;8.10;;;;;;;0.13;56.06;102687.16;5014110;28;20522;-68
2024/01/10 09:32:45;;;;;;;10.98;6.72;;;;;;;-0.52;59.96;102689.59;5031588;28;20474;-68
2024/01/10 09:35:12;;;;;;;13.00;7.38;;;;;;;-1.21;63.24;102686.88;5031631;28;20029;-68
2024/01/10 09:37:37;;;;;;;13.02;7.60;;;;;;;-2.03;69.67;102695.16;5031529;28;20061;-68
2024/01/10 09:40:03;;;;;;;13.35;7.70;;;;;;;-2.35;72.68;102694.34;5031471;28;20076;-69
2024/01/10 09:42:31;;;;;;;11.30;6.82;;;;;;;-2.10;74.68;102704.31;5031408;28;20030;-69
2024/01/10 09:44:57;;;;;;;10.82;7.50;;;;;;;-1.33;68.95;102699.81;5013934;28;20041;-69
2024/01/10 09:47:22;;;;;;;15.27;8.32;;;;;;;-0.37;64.78;102699.13;5031461;28;20037;-69
2024/01/10 09:49:48;;;;;;;11.68;7.25;;;;;;;0.28;60.79;102695.81;5031394;28;20459;-70
2024/01/10 09:52:24;;;;;;;14.50;8.57;;;;;;;0.48;59.03;102703.25;5031346;28;20061;-69
2024/01/10 09:54:56;;;;;;;13.98;8.18;;;;;;;0.66;59.53;102693.28;5031367;28;20092;-68
2024/01/10 09:57:23;;;;;;;16.33;8.87;;;;;;;0.69;57.46;102698.31;5031345;28;20049;-70
2024/01/10 09:59:51;;;;;;;12.77;8.30;;;;;;;0.75;56.70;102697.06;5031335;28;20032;-69
2024/01/10 10:02:18;;;;;;;14.25;9.40;;;;;;;0.85;54.11;102698.94;5031192;28;20029;-70
2024/01/10 10:05:05;;;;;;;14.35;9.52;;;;;;;0.74;54.98;102704.13;5031069;28;20116;-70
2024/01/10 10:07:30;;;;;;;15.82;9.25;;;;;;;0.19;56.51;102701.69;5032700;28;20033;-71
2024/01/10 10:09:56;;;;;;;12.02;9.05;;;;;;;-0.55;58.74;102691.59;5034690;28;20037;-70
2024/01/10 10:12:24;;;;;;;12.18;7.65;;;;;;;-1.22;61.95;102686.03;5034607;28;20064;-71
2024/01/10 10:14:49;;;;;;;17.08;9.60;;;;;;;-1.69;64.42;102692.31;5034659;28;20108;-71
2024/01/10 10:17:16;;;;;;;14.32;9.15;;;;;;;-1.62;68.39;102690.19;5034578;28;20069;-71
2024/01/10 10:19:41;;;;;;;13.93;7.97;;;;;;;-0.44;63.63;102692.59;5034486;28;20492;-70
2024/01/10 10:22:10;;;;;;;14.40;8.88;;;;;;;0.46;59.58;102688.50;5016645;28;20033;-70
2024/01/10 10:24:37;;;;;;;13.45;8.60;;;;;;;0.82;56.24;102698.31;5034333;28;20078;-70
2024/01/10 10:27:07;;;;;;;15.27;9.00;;;;;;;1.14;54.40;102688.19;5034468;28;20478;-70
2024/01/10 10:29:35;;;;;;;14.93;9.48;;;;;;;1.28;53.15;102692.53;5034487;28;20481;-71
2024/01/10 10:32:01;;;;;;;12.70;7.57;;;;;;;1.39;53.05;102689.97;5034404;28;20065;-70
2024/01/10 10:34:31;;;;;;;15.50;8.30;;;;;;;1.44;53.33;102695.75;5034289;28;20048;-70
2024/01/10 10:36:56;;;;;;;13.15;8.23;;;;;;;1.44;53.37;102682.56;5034313;28;20096;-70
2024/01/10 10:39:22;;;;;;;17.92;11.35;;;;;;;0.96;54.33;102676.31;5034299;28;20455;-71
2024/01/10 10:41:48;;;;;;;14.57;9.00;;;;;;;0.40;55.86;102668.72;5034214;28;20055;-72
2024/01/10 10:44:18;;;;;;;15.23;9.40;;;;;;;0.58;57.79;102672.75;5034268;28;20040;-71
2024/01/10 10:46:48;;;;;;;15.00;9.65;;;;;;;1.17;54.81;102664.31;5034429;28;20525;-73
2024/01/10 10:49:14;;;;;;;17.00;9.02;;;;;;;1.34;52.60;102666.56;5016384;28;20036;-72
2024/01/10 10:51:41;;;;;;;15.65;10.27;;;;;;;0.83;53.45;102674.53;5034176;28;20025;-73
2024/01/10 10:54:09;;;;;;;17.42;9.15;;;;;;;0.01;55.93;102671.34;5034192;28;20057;-72
2024/01/10 10:56:37;;;;;;;16.52;9.77;;;;;;;-0.65;58.75;102668.50;5016392;28;20021;-73
2024/01/10 10:59:04;;;;;;;19.58;10.15;;;;;;;-0.45;58.96;102677.78;5016342;28;20505;-72
2024/01/10 11:01:31;;;;;;;17.65;9.48;;;;;;;-0.36;59.32;102671.91;5033996;28;20470;-72
2024/01/10 11:03:57;;;;;;;13.88;9.10;;;;;;;-0.38;58.81;102676.44;5033878;28;20470;-71
2024/01/10 11:06:23;;;;;;;16.23;8.80;;;;;;;-0.21;61.01;102669.25;5033719;28;20029;-71
2024/01/10 11:09:06;;;;;;;15.05;9.00;;;;;;;0.84;58.47;102667.47;5033601;28;20036;-73
2024/01/10 11:11:50;;;;;;;17.83;8.95;;;;;;;1.61;54.47;102679.56;5015934;28;20482;-71
2024/01/10 11:14:51;;;;;;;11.55;8.15;;;;;;;1.92;51.53;102672.91;5015957;28;20107;-72